• Join FlightAware (Why Join?)
  • Login
  • US Flag 
01:32AM EDT


 

Airport Tracker/Info


-or-


 

Live Flight TrackerFlight Track Log ✈ AWI4029 ✈ 22-Aug-2013 ✈ KALB - KPHL

Flight Track Log - Related Links

Times and Time Zones

All times are in EDT time to prevent confusion due to time zone crossing. See the AWI4029 flight status page for this flight to view local times or setup timezone preferences in your user account.

Time Position Orientation Groundspeed Altitude Reporting Facility
EDT Latitude Longitude Course Direction KTS MPH feet Rate Location/Type
05:31AM 42.7714 -73.8092 220° Southwest 180 207 1,100  Level Boston Center
05:32AM 42.7978 -73.8833 296° West 221 254 3,500 1,860 Climbing Boston Center
05:33AM 42.7333 -74.0589 270° West  Level FlightAware Approximate
05:34AM 42.7334 -74.1884 270° West  Level FlightAware Approximate
05:34AM 42.7836 -73.9903 260° West 267 307 5,900  Level Boston Center
05:35AM 42.7259 -74.3148 236° Southwest  Level FlightAware Approximate
05:35AM 42.7719 -74.0919 261° West 273 314 8,700  Level Boston Center
05:36AM 42.6561 -74.4016 220° Southwest  Level FlightAware Approximate
05:36AM 42.7600 -74.1822 260° West 273 314 11,200  Level Boston Center
05:37AM 42.7458 -74.2947 260° West 278 320 13,200 1,680 Climbing Boston Center
05:38AM 42.6903 -74.3694 225° Southwest 283 326 14,600 1,380 Climbing Boston Center
05:39AM 42.6181 -74.4544 221° Southwest 308 354 16,000 660 Climbing Boston Center
05:40AM 42.5583 -74.5231 220° Southwest 320 368 16,000  Level Boston Center
05:41AM 42.4817 -74.6106 220° Southwest 325 374 16,000  Level Boston Center
05:42AM 42.4178 -74.6844 221° Southwest 330 380 16,000  Level Boston Center
05:43AM 42.3389 -74.7714 219° Southwest 330 380 16,000  Level Boston Center
05:45AM 42.2067 -74.9256 221° Southwest 347 399 16,000  Level New York Center
05:46AM 42.1333 -74.9964 216° Southwest 352 405 16,000  Level New York Center
05:47AM 42.0561 -75.0639 213° Southwest 352 405 16,000  Level New York Center
05:48AM 41.9725 -75.1311 211° Southwest 352 405 16,000  Level New York Center
05:49AM 41.8822 -75.2031 211° Southwest 352 405 16,000 -180 Level New York Center
05:50AM 41.8186 -75.2936 227° Southwest 352 405 15,700 -900 Descending New York Center
05:51AM 41.7669 -75.3900 234° Southwest 346 398 14,300 -1,380 Descending New York Center
05:52AM 41.7150 -75.4919 236° Southwest 341 392 13,000 -1,200 Descending New York Center
05:53AM 41.6506 -75.5903 229° Southwest 336 387 12,000 -540 Descending New York Center
05:54AM 41.5828 -75.6686 221° Southwest 330 380 12,000  Level New York Center
05:55AM 41.5178 -75.7303 215° Southwest 325 374 12,000  Level New York Center
05:56AM 41.4403 -75.7936 211° Southwest 325 374 12,000  Level New York Center
05:57AM 41.3606 -75.8514 209° Southwest 330 380 12,000  Level New York Center
05:58AM 41.2792 -75.9033 206° Southwest 330 380 12,000  Level New York Center
05:59AM 41.1825 -75.9261 190° South 330 380 12,000  Level New York Center
06:00AM 41.0911 -75.9192 177° South 331 381 12,000 -240 Level New York Center
06:01AM 41.0061 -75.8606 153° Southeast 336 387 11,600 -660 Descending New York Center
06:02AM 40.9317 -75.8000 148° Southeast 331 381 10,700 -840 Descending New York Center
06:03AM 40.8528 -75.7422 151° Southeast 319 367 10,000 -360 Descending New York Center
06:04AM 40.7842 -75.6878 149° Southeast 319 367 10,000  Level New York Center
06:05AM 40.7075 -75.6303 150° Southeast 319 367 10,000  Level New York Center
06:06AM 40.6206 -75.5639 150° Southeast 319 367 10,000  Level New York Center
06:07AM 40.5539 -75.5100 148° Southeast 319 367 10,000  Level New York Center
06:08AM 40.4831 -75.4589 151° Southeast 304 350 10,000  Level New York Center
06:09AM 40.4078 -75.4100 154° Southeast 299 344 10,000 -600 Level New York Center
06:10AM 40.3367 -75.3672 155° Southeast 270 311 8,800 -1,200 Descending New York Center
06:11AM 40.2756 -75.3306 155° Southeast 254 292 7,700 -900 Descending New York Center
06:12AM 40.2144 -75.2939 155° Southeast 248 285 7,000 -600 Descending New York Center
06:13AM 40.1472 -75.2514 154° Southeast 254 292 6,500 -540 Descending New York Center
06:14AM 40.0861 -75.2122 154° Southeast 249 287 6,000 -300 Descending New York Center
06:15AM 40.0492 -75.1419 124° Southeast 237 273 6,000  Level New York Center
06:16AM 40.0289 -75.0675 110° East 237 273 6,000 -300 Level New York Center
06:17AM 40.0092 -74.9825 107° East 230 265 5,400 -780 Descending New York Center
06:18AM 40.0031 -74.9169 97° East 216 249 4,500 -1,200 Descending New York Center
06:19AM 39.9517 -74.8978 164° South 172 198 3,100 -780 Descending New York Center
06:20AM 39.9292 -74.9478 240° Southwest 127 146 3,000 -60 Descending New York Center
06:21AM 39.9142 -75.0144 254° West 165 190 3,000 -480 Level New York Center
06:22AM 39.9000 -75.1000 258° West 180 207 2,000 -840 Descending Philadelphia TRACON
06:23AM 39.8833 -75.1500 247° West 130 150 1,200 -720 Descending Philadelphia TRACON
06:24AM 39.8833 -75.2000 270° West 134 154 600 -600 Descending Philadelphia TRACON